sensor_id;sensor_type;location;lat;lon;timestamp;temperature;humidity
35463;DHT22;21578;47.892;9.970;2022-09-09T00:02:19;14.20;96.60
35463;DHT22;21578;47.892;9.970;2022-09-09T00:07:11;14.30;96.60
35463;DHT22;21578;47.892;9.970;2022-09-09T00:12:06;14.30;96.60
35463;DHT22;21578;47.892;9.970;2022-09-09T00:17:02;14.20;96.60
35463;DHT22;21578;47.892;9.970;2022-09-09T00:22:00;14.20;96.60
35463;DHT22;21578;47.892;9.970;2022-09-09T00:26:52;14.20;96.60
35463;DHT22;21578;47.892;9.970;2022-09-09T00:31:41;14.20;96.60
35463;DHT22;21578;47.892;9.970;2022-09-09T00:36:30;14.20;96.60
35463;DHT22;21578;47.892;9.970;2022-09-09T00:41:23;14.20;96.60
35463;DHT22;21578;47.892;9.970;2022-09-09T00:46:32;14.30;96.60
35463;DHT22;21578;47.892;9.970;2022-09-09T00:51:30;14.20;96.60
35463;DHT22;21578;47.892;9.970;2022-09-09T00:56:24;14.20;96.60
35463;DHT22;21578;47.892;9.970;2022-09-09T01:01:13;14.20;96.60
35463;DHT22;21578;47.892;9.970;2022-09-09T01:06:03;14.10;96.60
35463;DHT22;21578;47.892;9.970;2022-09-09T01:10:54;14.10;96.60
35463;DHT22;21578;47.892;9.970;2022-09-09T01:15:44;14.10;96.60
35463;DHT22;21578;47.892;9.970;2022-09-09T01:20:39;14.00;96.60
35463;DHT22;21578;47.892;9.970;2022-09-09T01:30:40;13.90;96.60
35463;DHT22;21578;47.892;9.970;2022-09-09T01:35:37;13.90;96.60
35463;DHT22;21578;47.892;9.970;2022-09-09T01:40:25;14.00;96.60
35463;DHT22;21578;47.892;9.970;2022-09-09T01:45:12;14.00;96.60
35463;DHT22;21578;47.892;9.970;2022-09-09T01:50:01;14.00;96.60
35463;DHT22;21578;47.892;9.970;2022-09-09T01:54:49;13.90;96.60
35463;DHT22;21578;47.892;9.970;2022-09-09T01:59:51;13.80;96.60
35463;DHT22;21578;47.892;9.970;2022-09-09T02:04:41;13.80;96.60
35463;DHT22;21578;47.892;9.970;2022-09-09T02:09:30;13.80;96.60
35463;DHT22;21578;47.892;9.970;2022-09-09T02:14:23;13.70;96.60
35463;DHT22;21578;47.892;9.970;2022-09-09T02:19:14;13.70;96.60
35463;DHT22;21578;47.892;9.970;2022-09-09T02:24:05;13.70;96.60
35463;DHT22;21578;47.892;9.970;2022-09-09T02:28:57;13.70;96.60
35463;DHT22;21578;47.892;9.970;2022-09-09T02:33:50;13.70;96.60
35463;DHT22;21578;47.892;9.970;2022-09-09T02:38:42;13.60;96.60
35463;DHT22;21578;47.892;9.970;2022-09-09T02:43:31;13.60;96.60
35463;DHT22;21578;47.892;9.970;2022-09-09T02:48:25;13.50;96.60
35463;DHT22;21578;47.892;9.970;2022-09-09T02:53:16;13.50;96.60
35463;DHT22;21578;47.892;9.970;2022-09-09T02:58:05;13.50;96.60
35463;DHT22;21578;47.892;9.970;2022-09-09T03:02:53;13.50;96.60
35463;DHT22;21578;47.892;9.970;2022-09-09T03:07:42;13.50;96.60
35463;DHT22;21578;47.892;9.970;2022-09-09T03:12:29;13.40;96.60
35463;DHT22;21578;47.892;9.970;2022-09-09T03:17:16;13.50;96.60
35463;DHT22;21578;47.892;9.970;2022-09-09T03:22:03;13.50;96.60
35463;DHT22;21578;47.892;9.970;2022-09-09T03:26:52;13.70;96.60
35463;DHT22;21578;47.892;9.970;2022-09-09T03:31:41;13.70;96.60
35463;DHT22;21578;47.892;9.970;2022-09-09T03:36:28;13.70;96.60
35463;DHT22;21578;47.892;9.970;2022-09-09T03:41:15;13.70;96.60
35463;DHT22;21578;47.892;9.970;2022-09-09T03:46:04;13.70;96.60
35463;DHT22;21578;47.892;9.970;2022-09-09T03:50:53;13.70;96.60
35463;DHT22;21578;47.892;9.970;2022-09-09T03:55:44;13.70;96.60
35463;DHT22;21578;47.892;9.970;2022-09-09T04:00:31;13.80;96.60
35463;DHT22;21578;47.892;9.970;2022-09-09T04:05:19;13.80;96.60
35463;DHT22;21578;47.892;9.970;2022-09-09T04:10:07;13.90;96.60
35463;DHT22;21578;47.892;9.970;2022-09-09T04:14:55;13.90;96.60
35463;DHT22;21578;47.892;9.970;2022-09-09T04:19:42;14.10;96.60
35463;DHT22;21578;47.892;9.970;2022-09-09T04:24:30;14.00;96.60
35463;DHT22;21578;47.892;9.970;2022-09-09T04:29:17;14.10;96.60
35463;DHT22;21578;47.892;9.970;2022-09-09T04:34:04;14.10;96.60
35463;DHT22;21578;47.892;9.970;2022-09-09T04:38:51;14.20;96.60
35463;DHT22;21578;47.892;9.970;2022-09-09T04:43:40;14.30;96.60
35463;DHT22;21578;47.892;9.970;2022-09-09T04:48:27;14.20;96.60
35463;DHT22;21578;47.892;9.970;2022-09-09T04:53:14;14.20;96.60
35463;DHT22;21578;47.892;9.970;2022-09-09T04:58:03;14.10;96.60
35463;DHT22;21578;47.892;9.970;2022-09-09T05:02:52;14.10;96.60
35463;DHT22;21578;47.892;9.970;2022-09-09T05:07:40;14.00;96.60
35463;DHT22;21578;47.892;9.970;2022-09-09T05:12:27;14.10;96.60
35463;DHT22;21578;47.892;9.970;2022-09-09T05:17:14;14.10;96.60
35463;DHT22;21578;47.892;9.970;2022-09-09T05:22:03;14.10;96.60
35463;DHT22;21578;47.892;9.970;2022-09-09T05:26:50;14.20;96.60
35463;DHT22;21578;47.892;9.970;2022-09-09T05:31:37;14.30;96.60
35463;DHT22;21578;47.892;9.970;2022-09-09T05:36:25;14.30;96.60
35463;DHT22;21578;47.892;9.970;2022-09-09T05:41:14;14.30;96.60
35463;DHT22;21578;47.892;9.970;2022-09-09T05:46:03;14.30;96.60
35463;DHT22;21578;47.892;9.970;2022-09-09T05:50:53;14.40;96.60
35463;DHT22;21578;47.892;9.970;2022-09-09T05:55:40;14.50;96.60
35463;DHT22;21578;47.892;9.970;2022-09-09T06:00:28;14.50;96.60
35463;DHT22;21578;47.892;9.970;2022-09-09T06:05:17;14.80;96.60
35463;DHT22;21578;47.892;9.970;2022-09-09T06:10:04;14.70;96.60
35463;DHT22;21578;47.892;9.970;2022-09-09T06:14:51;14.80;96.60
35463;DHT22;21578;47.892;9.970;2022-09-09T06:19:40;14.70;96.60
35463;DHT22;21578;47.892;9.970;2022-09-09T06:24:27;14.70;96.60
35463;DHT22;21578;47.892;9.970;2022-09-09T06:29:15;14.70;96.60
35463;DHT22;21578;47.892;9.970;2022-09-09T06:34:04;14.70;96.60
35463;DHT22;21578;47.892;9.970;2022-09-09T06:38:53;14.70;96.60
35463;DHT22;21578;47.892;9.970;2022-09-09T06:43:41;14.60;96.60
35463;DHT22;21578;47.892;9.970;2022-09-09T06:48:28;14.60;96.60
35463;DHT22;21578;47.892;9.970;2022-09-09T06:53:16;14.60;96.60
35463;DHT22;21578;47.892;9.970;2022-09-09T06:58:09;14.60;96.60
35463;DHT22;21578;47.892;9.970;2022-09-09T07:02:56;14.70;96.60
35463;DHT22;21578;47.892;9.970;2022-09-09T07:07:43;14.70;96.60
35463;DHT22;21578;47.892;9.970;2022-09-09T07:12:29;14.80;96.60
35463;DHT22;21578;47.892;9.970;2022-09-09T07:17:18;14.80;96.60
35463;DHT22;21578;47.892;9.970;2022-09-09T07:22:04;14.80;96.60
35463;DHT22;21578;47.892;9.970;2022-09-09T07:26:51;14.70;96.60
35463;DHT22;21578;47.892;9.970;2022-09-09T07:31:39;14.70;96.60
35463;DHT22;21578;47.892;9.970;2022-09-09T07:36:29;14.70;96.60
35463;DHT22;21578;47.892;9.970;2022-09-09T07:41:17;14.70;96.60
35463;DHT22;21578;47.892;9.970;2022-09-09T07:46:05;14.80;96.60
35463;DHT22;21578;47.892;9.970;2022-09-09T07:50:52;14.70;96.60
35463;DHT22;21578;47.892;9.970;2022-09-09T07:55:40;14.80;96.60
35463;DHT22;21578;47.892;9.970;2022-09-09T08:00:28;14.90;96.60
35463;DHT22;21578;47.892;9.970;2022-09-09T08:05:15;15.00;96.60
35463;DHT22;21578;47.892;9.970;2022-09-09T08:10:02;15.10;96.60
35463;DHT22;21578;47.892;9.970;2022-09-09T08:14:50;15.10;96.60
35463;DHT22;21578;47.892;9.970;2022-09-09T08:19:39;15.30;96.60
35463;DHT22;21578;47.892;9.970;2022-09-09T08:24:26;15.40;96.60
35463;DHT22;21578;47.892;9.970;2022-09-09T08:29:13;15.70;96.60
35463;DHT22;21578;47.892;9.970;2022-09-09T08:34:02;15.80;96.60
35463;DHT22;21578;47.892;9.970;2022-09-09T08:38:51;15.90;96.60
35463;DHT22;21578;47.892;9.970;2022-09-09T08:43:40;15.90;96.60
35463;DHT22;21578;47.892;9.970;2022-09-09T08:48:49;15.90;96.60
35463;DHT22;21578;47.892;9.970;2022-09-09T08:53:43;15.90;96.60
35463;DHT22;21578;47.892;9.970;2022-09-09T08:58:33;15.80;96.60
35463;DHT22;21578;47.892;9.970;2022-09-09T09:03:27;15.80;96.60
35463;DHT22;21578;47.892;9.970;2022-09-09T09:08:23;15.90;96.60
35463;DHT22;21578;47.892;9.970;2022-09-09T09:13:20;16.00;96.60
35463;DHT22;21578;47.892;9.970;2022-09-09T09:18:12;16.00;96.60
35463;DHT22;21578;47.892;9.970;2022-09-09T09:23:03;16.20;96.60
35463;DHT22;21578;47.892;9.970;2022-09-09T09:28:07;16.40;96.60
35463;DHT22;21578;47.892;9.970;2022-09-09T09:33:02;16.50;96.60
35463;DHT22;21578;47.892;9.970;2022-09-09T09:37:52;16.70;96.60
35463;DHT22;21578;47.892;9.970;2022-09-09T09:42:49;16.90;96.60
35463;DHT22;21578;47.892;9.970;2022-09-09T09:47:37;16.60;96.60
35463;DHT22;21578;47.892;9.970;2022-09-09T09:52:29;16.60;96.60
35463;DHT22;21578;47.892;9.970;2022-09-09T09:57:18;16.80;96.60
35463;DHT22;21578;47.892;9.970;2022-09-09T10:02:17;16.80;96.60
35463;DHT22;21578;47.892;9.970;2022-09-09T10:07:11;16.90;96.60
35463;DHT22;21578;47.892;9.970;2022-09-09T10:12:04;16.80;96.60
35463;DHT22;21578;47.892;9.970;2022-09-09T10:17:09;16.80;96.60
35463;DHT22;21578;47.892;9.970;2022-09-09T10:22:08;16.90;96.60
35463;DHT22;21578;47.892;9.970;2022-09-09T10:27:03;17.20;96.60
35463;DHT22;21578;47.892;9.970;2022-09-09T10:31:57;17.30;96.60
35463;DHT22;21578;47.892;9.970;2022-09-09T10:36:49;17.30;96.60
35463;DHT22;21578;47.892;9.970;2022-09-09T10:41:46;17.40;96.60
35463;DHT22;21578;47.892;9.970;2022-09-09T10:46:50;17.70;96.60
35463;DHT22;21578;47.892;9.970;2022-09-09T10:51:44;18.20;96.60
35463;DHT22;21578;47.892;9.970;2022-09-09T10:56:36;18.70;96.60
35463;DHT22;21578;47.892;9.970;2022-09-09T11:01:28;18.80;95.20
35463;DHT22;21578;47.892;9.970;2022-09-09T11:06:20;18.80;95.20
35463;DHT22;21578;47.892;9.970;2022-09-09T11:11:13;18.80;95.10
35463;DHT22;21578;47.892;9.970;2022-09-09T11:16:12;18.70;93.70
35463;DHT22;21578;47.892;9.970;2022-09-09T11:21:03;18.40;94.40
35463;DHT22;21578;47.892;9.970;2022-09-09T11:25:58;18.70;93.90
35463;DHT22;21578;47.892;9.970;2022-09-09T11:30:56;19.10;93.20
35463;DHT22;21578;47.892;9.970;2022-09-09T11:35:55;19.60;90.60
35463;DHT22;21578;47.892;9.970;2022-09-09T11:40:46;19.70;88.20
35463;DHT22;21578;47.892;9.970;2022-09-09T11:45:35;19.80;89.00
35463;DHT22;21578;47.892;9.970;2022-09-09T11:50:34;20.10;86.60
35463;DHT22;21578;47.892;9.970;2022-09-09T11:55:25;20.40;87.40
35463;DHT22;21578;47.892;9.970;2022-09-09T12:00:30;20.60;85.70
35463;DHT22;21578;47.892;9.970;2022-09-09T12:05:20;20.20;85.00
35463;DHT22;21578;47.892;9.970;2022-09-09T12:10:22;20.00;86.70
35463;DHT22;21578;47.892;9.970;2022-09-09T12:15:23;19.80;87.20
35463;DHT22;21578;47.892;9.970;2022-09-09T12:20:15;19.80;87.70
35463;DHT22;21578;47.892;9.970;2022-09-09T12:25:12;19.70;88.30
35463;DHT22;21578;47.892;9.970;2022-09-09T12:30:07;19.50;89.10
35463;DHT22;21578;47.892;9.970;2022-09-09T12:34:59;19.40;90.10
35463;DHT22;21578;47.892;9.970;2022-09-09T12:39:53;19.40;89.40
35463;DHT22;21578;47.892;9.970;2022-09-09T12:44:51;20.10;89.20
35463;DHT22;21578;47.892;9.970;2022-09-09T12:49:39;20.80;87.20
35463;DHT22;21578;47.892;9.970;2022-09-09T12:54:26;21.30;85.60
35463;DHT22;21578;47.892;9.970;2022-09-09T12:59:22;21.00;84.90
35463;DHT22;21578;47.892;9.970;2022-09-09T13:04:20;21.00;84.50
35463;DHT22;21578;47.892;9.970;2022-09-09T13:09:08;21.10;79.40
35463;DHT22;21578;47.892;9.970;2022-09-09T13:13:57;21.10;81.70
35463;DHT22;21578;47.892;9.970;2022-09-09T13:18:44;21.60;79.10
35463;DHT22;21578;47.892;9.970;2022-09-09T13:23:34;21.50;77.40
35463;DHT22;21578;47.892;9.970;2022-09-09T13:28:23;21.20;76.90
35463;DHT22;21578;47.892;9.970;2022-09-09T13:33:22;20.90;79.90
35463;DHT22;21578;47.892;9.970;2022-09-09T13:38:09;20.90;80.20
35463;DHT22;21578;47.892;9.970;2022-09-09T13:42:57;21.40;80.00
35463;DHT22;21578;47.892;9.970;2022-09-09T13:47:45;21.40;78.80
35463;DHT22;21578;47.892;9.970;2022-09-09T13:52:33;21.60;76.00
35463;DHT22;21578;47.892;9.970;2022-09-09T13:57:21;21.60;77.80
35463;DHT22;21578;47.892;9.970;2022-09-09T14:02:10;21.70;78.20
35463;DHT22;21578;47.892;9.970;2022-09-09T14:06:57;21.90;76.30
35463;DHT22;21578;47.892;9.970;2022-09-09T14:11:45;21.90;76.10
35463;DHT22;21578;47.892;9.970;2022-09-09T14:16:33;22.20;73.60
35463;DHT22;21578;47.892;9.970;2022-09-09T14:21:21;22.20;74.20
35463;DHT22;21578;47.892;9.970;2022-09-09T14:26:08;22.20;74.80
35463;DHT22;21578;47.892;9.970;2022-09-09T14:30:59;22.10;76.30
35463;DHT22;21578;47.892;9.970;2022-09-09T14:35:46;22.10;76.10
35463;DHT22;21578;47.892;9.970;2022-09-09T14:40:36;21.90;77.90
35463;DHT22;21578;47.892;9.970;2022-09-09T14:45:23;21.80;77.40
35463;DHT22;21578;47.892;9.970;2022-09-09T14:50:11;21.60;76.90
35463;DHT22;21578;47.892;9.970;2022-09-09T14:54:59;21.30;77.00
35463;DHT22;21578;47.892;9.970;2022-09-09T14:59:47;21.10;76.90
35463;DHT22;21578;47.892;9.970;2022-09-09T15:04:35;20.90;79.10
35463;DHT22;21578;47.892;9.970;2022-09-09T15:09:22;21.10;80.10
35463;DHT22;21578;47.892;9.970;2022-09-09T15:14:10;21.20;78.80
35463;DHT22;21578;47.892;9.970;2022-09-09T15:19:00;21.30;78.20
35463;DHT22;21578;47.892;9.970;2022-09-09T15:23:48;21.10;78.90
35463;DHT22;21578;47.892;9.970;2022-09-09T15:28:36;20.90;79.50
35463;DHT22;21578;47.892;9.970;2022-09-09T15:33:24;20.90;79.20
35463;DHT22;21578;47.892;9.970;2022-09-09T15:38:12;20.90;79.80
35463;DHT22;21578;47.892;9.970;2022-09-09T15:43:00;21.00;79.70
35463;DHT22;21578;47.892;9.970;2022-09-09T15:47:47;20.90;79.80
35463;DHT22;21578;47.892;9.970;2022-09-09T15:52:34;20.90;80.60
35463;DHT22;21578;47.892;9.970;2022-09-09T15:57:22;20.80;80.40
35463;DHT22;21578;47.892;9.970;2022-09-09T16:02:09;20.70;79.60
35463;DHT22;21578;47.892;9.970;2022-09-09T16:07:00;20.70;80.50
35463;DHT22;21578;47.892;9.970;2022-09-09T16:11:47;20.60;80.00
35463;DHT22;21578;47.892;9.970;2022-09-09T16:16:35;20.50;80.20
35463;DHT22;21578;47.892;9.970;2022-09-09T16:21:24;20.40;80.30
35463;DHT22;21578;47.892;9.970;2022-09-09T16:26:12;19.90;82.10
35463;DHT22;21578;47.892;9.970;2022-09-09T16:31:04;19.70;82.60
35463;DHT22;21578;47.892;9.970;2022-09-09T16:35:52;19.60;84.20
35463;DHT22;21578;47.892;9.970;2022-09-09T16:40:39;19.60;83.90
35463;DHT22;21578;47.892;9.970;2022-09-09T16:45:26;19.70;83.90
35463;DHT22;21578;47.892;9.970;2022-09-09T16:50:14;19.80;82.90
35463;DHT22;21578;47.892;9.970;2022-09-09T16:55:02;19.70;82.30
35463;DHT22;21578;47.892;9.970;2022-09-09T16:59:50;19.60;82.90
35463;DHT22;21578;47.892;9.970;2022-09-09T17:04:39;19.50;83.30
35463;DHT22;21578;47.892;9.970;2022-09-09T17:09:26;19.40;82.60
35463;DHT22;21578;47.892;9.970;2022-09-09T17:14:17;19.30;83.60
35463;DHT22;21578;47.892;9.970;2022-09-09T17:19:04;19.00;84.20
35463;DHT22;21578;47.892;9.970;2022-09-09T17:23:53;18.80;84.90
35463;DHT22;21578;47.892;9.970;2022-09-09T17:28:41;18.50;86.20
35463;DHT22;21578;47.892;9.970;2022-09-09T17:33:29;18.30;87.00
35463;DHT22;21578;47.892;9.970;2022-09-09T17:38:16;18.20;87.70
35463;DHT22;21578;47.892;9.970;2022-09-09T17:43:03;18.00;87.90
35463;DHT22;21578;47.892;9.970;2022-09-09T17:47:50;17.90;88.40
35463;DHT22;21578;47.892;9.970;2022-09-09T17:52:38;17.70;89.90
35463;DHT22;21578;47.892;9.970;2022-09-09T17:57:26;17.60;89.80
35463;DHT22;21578;47.892;9.970;2022-09-09T18:02:13;17.50;90.10
35463;DHT22;21578;47.892;9.970;2022-09-09T18:07:00;17.40;91.60
35463;DHT22;21578;47.892;9.970;2022-09-09T18:11:49;17.30;91.90
35463;DHT22;21578;47.892;9.970;2022-09-09T18:16:37;17.00;92.70
35463;DHT22;21578;47.892;9.970;2022-09-09T18:21:24;16.90;93.80
35463;DHT22;21578;47.892;9.970;2022-09-09T18:26:13;16.70;93.40
35463;DHT22;21578;47.892;9.970;2022-09-09T18:31:06;16.60;94.50
35463;DHT22;21578;47.892;9.970;2022-09-09T18:35:53;16.50;94.80
35463;DHT22;21578;47.892;9.970;2022-09-09T18:40:41;16.40;95.00
35463;DHT22;21578;47.892;9.970;2022-09-09T18:45:28;16.40;95.60
35463;DHT22;21578;47.892;9.970;2022-09-09T18:50:16;16.40;96.10
35463;DHT22;21578;47.892;9.970;2022-09-09T18:55:04;16.40;96.00
35463;DHT22;21578;47.892;9.970;2022-09-09T18:59:52;16.20;96.50
35463;DHT22;21578;47.892;9.970;2022-09-09T19:04:39;15.80;96.60
35463;DHT22;21578;47.892;9.970;2022-09-09T19:09:30;15.70;96.60
35463;DHT22;21578;47.892;9.970;2022-09-09T19:14:18;15.60;96.60
35463;DHT22;21578;47.892;9.970;2022-09-09T19:19:08;15.50;96.60
35463;DHT22;21578;47.892;9.970;2022-09-09T19:23:58;15.50;96.60
35463;DHT22;21578;47.892;9.970;2022-09-09T19:28:47;15.10;91.90
35463;DHT22;21578;47.892;9.970;2022-09-09T19:33:36;14.50;95.50
35463;DHT22;21578;47.892;9.970;2022-09-09T19:38:23;14.20;96.60
35463;DHT22;21578;47.892;9.970;2022-09-09T19:43:10;14.20;96.60
35463;DHT22;21578;47.892;9.970;2022-09-09T19:47:59;14.20;96.60
35463;DHT22;21578;47.892;9.970;2022-09-09T19:52:46;14.30;96.60
35463;DHT22;21578;47.892;9.970;2022-09-09T19:57:32;14.30;96.60
35463;DHT22;21578;47.892;9.970;2022-09-09T20:02:20;14.30;96.60
35463;DHT22;21578;47.892;9.970;2022-09-09T20:07:08;14.30;96.60
35463;DHT22;21578;47.892;9.970;2022-09-09T20:11:55;14.30;96.60
35463;DHT22;21578;47.892;9.970;2022-09-09T20:16:42;14.20;96.60
35463;DHT22;21578;47.892;9.970;2022-09-09T20:21:31;14.10;96.60
35463;DHT22;21578;47.892;9.970;2022-09-09T20:26:22;14.00;96.60
35463;DHT22;21578;47.892;9.970;2022-09-09T20:31:15;14.00;96.60
35463;DHT22;21578;47.892;9.970;2022-09-09T20:36:09;14.20;96.60
35463;DHT22;21578;47.892;9.970;2022-09-09T20:40:56;14.10;96.60
35463;DHT22;21578;47.892;9.970;2022-09-09T20:45:44;14.00;96.60
35463;DHT22;21578;47.892;9.970;2022-09-09T20:50:34;14.00;96.60
35463;DHT22;21578;47.892;9.970;2022-09-09T20:55:21;13.90;96.60
35463;DHT22;21578;47.892;9.970;2022-09-09T21:00:09;13.90;96.60
35463;DHT22;21578;47.892;9.970;2022-09-09T21:04:57;13.90;96.60
35463;DHT22;21578;47.892;9.970;2022-09-09T21:09:45;13.80;96.60
35463;DHT22;21578;47.892;9.970;2022-09-09T21:14:32;13.70;96.60
35463;DHT22;21578;47.892;9.970;2022-09-09T21:19:19;13.70;96.60
35463;DHT22;21578;47.892;9.970;2022-09-09T21:24:08;13.60;96.60
35463;DHT22;21578;47.892;9.970;2022-09-09T21:28:55;13.50;96.60
35463;DHT22;21578;47.892;9.970;2022-09-09T21:33:42;13.50;96.60
35463;DHT22;21578;47.892;9.970;2022-09-09T21:38:31;13.50;96.60
35463;DHT22;21578;47.892;9.970;2022-09-09T21:43:20;13.50;96.60
35463;DHT22;21578;47.892;9.970;2022-09-09T21:48:09;13.50;96.60
35463;DHT22;21578;47.892;9.970;2022-09-09T21:52:56;13.50;96.60
35463;DHT22;21578;47.892;9.970;2022-09-09T21:57:43;13.50;96.60
35463;DHT22;21578;47.892;9.970;2022-09-09T22:02:31;13.60;96.60
35463;DHT22;21578;47.892;9.970;2022-09-09T22:07:20;13.60;96.60
35463;DHT22;21578;47.892;9.970;2022-09-09T22:12:07;13.60;96.60
35463;DHT22;21578;47.892;9.970;2022-09-09T22:16:54;13.70;96.60
35463;DHT22;21578;47.892;9.970;2022-09-09T22:21:42;13.70;96.60
35463;DHT22;21578;47.892;9.970;2022-09-09T22:26:31;13.70;96.60
35463;DHT22;21578;47.892;9.970;2022-09-09T22:31:19;13.70;96.60
35463;DHT22;21578;47.892;9.970;2022-09-09T22:36:07;13.70;96.60
35463;DHT22;21578;47.892;9.970;2022-09-09T22:40:55;13.70;96.60
35463;DHT22;21578;47.892;9.970;2022-09-09T22:45:44;13.80;96.60
35463;DHT22;21578;47.892;9.970;2022-09-09T22:50:32;13.80;96.60
35463;DHT22;21578;47.892;9.970;2022-09-09T22:55:19;13.80;96.60
35463;DHT22;21578;47.892;9.970;2022-09-09T23:00:09;13.80;96.60
35463;DHT22;21578;47.892;9.970;2022-09-09T23:04:58;13.80;96.60
35463;DHT22;21578;47.892;9.970;2022-09-09T23:09:46;13.80;96.60
35463;DHT22;21578;47.892;9.970;2022-09-09T23:14:33;13.80;96.60
35463;DHT22;21578;47.892;9.970;2022-09-09T23:19:21;13.80;96.60
35463;DHT22;21578;47.892;9.970;2022-09-09T23:24:10;13.80;96.60
35463;DHT22;21578;47.892;9.970;2022-09-09T23:28:58;13.90;96.60
35463;DHT22;21578;47.892;9.970;2022-09-09T23:33:47;13.90;96.60
35463;DHT22;21578;47.892;9.970;2022-09-09T23:38:36;13.80;96.60
35463;DHT22;21578;47.892;9.970;2022-09-09T23:43:24;13.70;96.60
35463;DHT22;21578;47.892;9.970;2022-09-09T23:48:11;13.60;96.60
35463;DHT22;21578;47.892;9.970;2022-09-09T23:52:58;13.60;96.60
35463;DHT22;21578;47.892;9.970;2022-09-09T23:57:47;13.60;96.60
